Time;durP1;ratioP1;P1;durP2;ratioP2;P2;SDS_P1;SDS_P2;PMS_P1;PMS_P2;Temp;Humidity;BMP_temperature;BMP_pressure;BME280_temperature;BME280_humidity;BME280_pressure;Samples;Min_cycle;Max_cycle;Signal;HPM_P1;HPM_P2
2023/10/15 04:59:20;;;;;;;1999.90;999.90;;;;;;;;;;5617526;23;20268;-64
2023/10/15 05:01:48;;;;;;;1999.90;999.90;;;;;;;;;;4993113;28;20038;-66
2023/10/15 05:04:14;;;;;;;1999.90;999.90;;;;;;;;;;4983052;28;20035;-66
2023/10/15 05:06:40;;;;;;;1999.90;999.90;;;;;;;;;;4984845;28;20018;-67
2023/10/15 05:09:09;;;;;;;1999.90;999.90;;;;;;;;;;4982975;28;20015;-66
2023/10/15 05:11:36;;;;;;;1999.90;999.90;;;;;;;;;;4965609;28;20437;-66
2023/10/15 05:14:02;;;;;;;1999.90;999.90;;;;;;;;;;4984473;28;20053;-67
2023/10/15 05:16:29;;;;;;;1999.90;999.90;;;;;;;;;;4982986;28;20014;-66
2023/10/15 05:18:58;;;;;;;1999.90;999.90;;;;;;;;;;4983227;28;20014;-65
2023/10/15 05:21:25;;;;;;;1999.90;999.90;;;;;;;;;;4982472;28;20138;-66
2023/10/15 05:23:53;;;;;;;1999.90;999.90;;;;;;;;;;4983187;28;20106;-66
2023/10/15 05:26:20;;;;;;;1999.90;999.90;;;;;;;;;;4961855;28;20062;-64
2023/10/15 05:28:47;;;;;;;1999.90;999.90;;;;;;;;;;4989545;28;20026;-64
2023/10/15 05:31:13;;;;;;;1999.90;999.90;;;;;;;;;;4992447;28;20036;-65
2023/10/15 05:33:39;;;;;;;1999.90;999.90;;;;;;;;;;4987060;28;20031;-65
2023/10/15 05:36:06;;;;;;;1999.90;999.90;;;;;;;;;;4986074;28;20800;-64
2023/10/15 05:38:32;;;;;;;1999.90;999.90;;;;;;;;;;4992697;28;20441;-65
2023/10/15 05:40:58;;;;;;;1999.90;999.90;;;;;;;;;;4992112;28;20030;-65
2023/10/15 05:43:25;;;;;;;1999.90;999.90;;;;;;;;;;4992658;28;20038;-64
2023/10/15 05:45:51;;;;;;;1999.90;999.90;;;;;;;;;;4992755;28;20390;-66
2023/10/15 05:48:17;;;;;;;1999.90;999.90;;;;;;;;;;4985371;28;20541;-66
2023/10/15 05:50:47;;;;;;;1999.90;999.90;;;;;;;;;;4976901;28;20117;-64
2023/10/15 05:53:14;;;;;;;1999.90;999.90;;;;;;;;;;4982131;28;20101;-65
2023/10/15 05:55:40;;;;;;;1999.90;999.90;;;;;;;;;;4990229;28;20027;-63
2023/10/15 05:58:08;;;;;;;1999.90;999.90;;;;;;;;;;4992612;28;20115;-65
2023/10/15 06:00:39;;;;;;;1999.90;999.90;;;;;;;;;;4981837;28;20485;-64
2023/10/15 06:03:06;;;;;;;1999.90;999.90;;;;;;;;;;4973607;28;20442;-66
2023/10/15 06:05:32;;;;;;;1999.90;999.90;;;;;;;;;;4973430;28;20260;-65
2023/10/15 06:07:58;;;;;;;1999.90;999.90;;;;;;;;;;4954858;28;20035;-66
2023/10/15 06:10:24;;;;;;;1999.90;999.90;;;;;;;;;;4936751;29;20035;-66
2023/10/15 06:12:50;;;;;;;1999.90;999.90;;;;;;;;;;4954116;29;20028;-66
2023/10/15 06:15:16;;;;;;;1999.90;999.90;;;;;;;;;;4954027;28;20031;-66
2023/10/15 06:17:44;;;;;;;1999.90;999.90;;;;;;;;;;4953078;29;20023;-65
2023/10/15 06:20:13;;;;;;;1999.90;999.90;;;;;;;;;;4954132;29;20724;-65
2023/10/15 06:22:39;;;;;;;1999.90;999.90;;;;;;;;;;4953736;29;20402;-65
2023/10/15 06:25:08;;;;;;;1999.90;999.90;;;;;;;;;;4954004;29;20118;-66
2023/10/15 06:27:35;;;;;;;1999.90;999.90;;;;;;;;;;4953835;29;20027;-66
2023/10/15 06:30:04;;;;;;;1999.90;999.90;;;;;;;;;;4936213;29;20142;-66
2023/10/15 06:32:31;;;;;;;1999.90;999.90;;;;;;;;;;4953617;29;20023;-66
2023/10/15 06:34:57;;;;;;;1999.90;999.90;;;;;;;;;;4953640;29;20077;-66
2023/10/15 06:37:23;;;;;;;1999.90;999.90;;;;;;;;;;4953858;29;20027;-66
2023/10/15 06:39:49;;;;;;;1999.90;999.90;;;;;;;;;;4936416;29;20086;-67
2023/10/15 06:42:15;;;;;;;1999.90;999.90;;;;;;;;;;4953765;29;20126;-66
2023/10/15 06:44:41;;;;;;;1999.90;999.90;;;;;;;;;;4953337;29;20115;-66
2023/10/15 06:47:07;;;;;;;1999.90;999.90;;;;;;;;;;4953541;29;20034;-69
2023/10/15 06:49:33;;;;;;;1999.90;999.90;;;;;;;;;;4952797;28;20821;-68
2023/10/15 06:52:00;;;;;;;1999.90;999.90;;;;;;;;;;4957545;28;20663;-62
2023/10/15 06:54:26;;;;;;;1999.90;999.90;;;;;;;;;;4961649;28;20051;-63
2023/10/15 06:56:53;;;;;;;1999.90;999.90;;;;;;;;;;4962648;28;20015;-62
2023/10/15 06:59:19;;;;;;;1999.90;999.90;;;;;;;;;;4958790;28;20026;-66
2023/10/15 07:01:45;;;;;;;1999.90;999.90;;;;;;;;;;4964951;28;20681;-63
2023/10/15 07:04:13;;;;;;;1999.90;999.90;;;;;;;;;;4962625;28;20050;-66
2023/10/15 07:06:40;;;;;;;1999.90;999.90;;;;;;;;;;4951781;28;20031;-66
2023/10/15 07:09:06;;;;;;;1999.90;999.90;;;;;;;;;;4957421;28;20039;-63
2023/10/15 07:11:33;;;;;;;1999.90;999.90;;;;;;;;;;4953176;29;20118;-66
2023/10/15 07:13:59;;;;;;;1999.90;999.90;;;;;;;;;;4934863;29;20020;-61
2023/10/15 07:16:25;;;;;;;1999.90;999.90;;;;;;;;;;4965697;28;20039;-64
2023/10/15 07:18:51;;;;;;;1999.90;999.90;;;;;;;;;;4953337;28;20055;-64
2023/10/15 07:21:19;;;;;;;1999.90;999.90;;;;;;;;;;4955291;28;20440;-64
2023/10/15 07:23:45;;;;;;;1999.90;999.90;;;;;;;;;;4956457;28;20038;-66
2023/10/15 07:26:11;;;;;;;1999.90;999.90;;;;;;;;;;4962099;28;20500;-63
2023/10/15 07:28:37;;;;;;;1999.90;999.90;;;;;;;;;;4971774;28;20027;-63
2023/10/15 07:31:05;;;;;;;1999.90;999.90;;;;;;;;;;4967626;28;20027;-60
2023/10/15 07:33:32;;;;;;;1999.90;999.90;;;;;;;;;;4954810;29;20034;-66
2023/10/15 07:36:01;;;;;;;1999.90;999.90;;;;;;;;;;4960771;28;20031;-65
2023/10/15 07:38:27;;;;;;;1999.90;999.90;;;;;;;;;;4964468;28;20039;-68
2023/10/15 07:40:55;;;;;;;1999.90;999.90;;;;;;;;;;4971353;28;20078;-62
2023/10/15 07:43:21;;;;;;;1999.90;999.90;;;;;;;;;;4964088;28;20491;-64
2023/10/15 07:45:47;;;;;;;1999.90;999.90;;;;;;;;;;4952299;29;20026;-63
2023/10/15 07:48:13;;;;;;;1999.90;999.90;;;;;;;;;;4967902;28;20059;-60
2023/10/15 07:50:40;;;;;;;1999.90;999.90;;;;;;;;;;4958638;28;20050;-62
2023/10/15 07:53:06;;;;;;;1999.90;999.90;;;;;;;;;;4960675;28;20030;-62
2023/10/15 07:55:32;;;;;;;1999.90;999.90;;;;;;;;;;4960591;28;20155;-63
2023/10/15 07:57:58;;;;;;;1999.90;999.90;;;;;;;;;;4961452;28;20035;-63
2023/10/15 08:00:29;;;;;;;1999.90;999.90;;;;;;;;;;4962919;28;20058;-61
2023/10/15 08:03:00;;;;;;;1999.90;999.90;;;;;;;;;;4958868;28;20126;-59
2023/10/15 08:05:26;;;;;;;1999.90;999.90;;;;;;;;;;4961250;28;20031;-62
2023/10/15 08:07:53;;;;;;;1999.90;999.90;;;;;;;;;;4943382;28;20034;-62
2023/10/15 08:10:24;;;;;;;1999.90;999.90;;;;;;;;;;4945605;28;20039;-65
2023/10/15 08:12:51;;;;;;;1999.90;999.90;;;;;;;;;;4962626;28;20082;-59
2023/10/15 08:15:18;;;;;;;1999.90;999.90;;;;;;;;;;4960340;28;20055;-60
2023/10/15 08:17:44;;;;;;;1999.90;999.90;;;;;;;;;;4967828;28;20037;-64
2023/10/15 08:20:10;;;;;;;1999.90;999.90;;;;;;;;;;4953045;28;20473;-68
2023/10/15 08:22:40;;;;;;;1999.90;999.90;;;;;;;;;;4967792;28;20066;-59
2023/10/15 08:25:13;;;;;;;1999.90;999.90;;;;;;;;;;4971036;28;20031;-64
2023/10/15 08:27:45;;;;;;;1999.90;999.90;;;;;;;;;;4970926;28;20034;-67
2023/10/15 08:30:15;;;;;;;1999.90;999.90;;;;;;;;;;4962930;28;20023;-64
2023/10/15 08:32:44;;;;;;;1999.90;999.90;;;;;;;;;;4947205;28;20049;-65
2023/10/15 08:35:10;;;;;;;1999.90;999.90;;;;;;;;;;4969281;28;20054;-66
2023/10/15 08:37:37;;;;;;;1999.90;999.90;;;;;;;;;;4971035;28;20513;-60
2023/10/15 08:40:06;;;;;;;1999.90;999.90;;;;;;;;;;4970238;28;20039;-65
2023/10/15 08:42:43;;;;;;;1999.90;999.90;;;;;;;;;;4974464;28;20143;-66
2023/10/15 08:45:09;;;;;;;1999.90;999.90;;;;;;;;;;4974828;28;20026;-67
2023/10/15 08:47:36;;;;;;;1999.90;999.90;;;;;;;;;;4974834;28;20529;-65
2023/10/15 08:50:02;;;;;;;1999.90;999.90;;;;;;;;;;4974358;28;20027;-61
2023/10/15 08:52:31;;;;;;;1999.90;999.90;;;;;;;;;;4973880;28;20023;-61
2023/10/15 08:55:01;;;;;;;1999.90;999.90;;;;;;;;;;4974643;28;20031;-65
2023/10/15 08:57:27;;;;;;;1999.90;999.90;;;;;;;;;;4974444;28;20027;-65
2023/10/15 08:59:54;;;;;;;1999.90;999.90;;;;;;;;;;4974061;28;20047;-61
2023/10/15 09:02:20;;;;;;;1999.90;999.90;;;;;;;;;;4956565;28;20042;-66
2023/10/15 09:04:46;;;;;;;1999.90;999.90;;;;;;;;;;4974397;28;20037;-65
2023/10/15 09:07:15;;;;;;;1999.90;999.90;;;;;;;;;;4974397;28;20031;-64
2023/10/15 09:09:42;;;;;;;1999.90;999.90;;;;;;;;;;4974079;28;20022;-60
2023/10/15 09:12:12;;;;;;;1999.90;999.90;;;;;;;;;;4974058;28;20546;-65
2023/10/15 09:14:44;;;;;;;1999.90;999.90;;;;;;;;;;4957112;28;20043;-64
2023/10/15 09:17:10;;;;;;;;;;;;;;;;;;4974700;28;20157;-59
2023/10/15 09:19:40;;;;;;;1999.90;999.90;;;;;;;;;;4974354;28;20000;-61
2023/10/15 09:22:14;;;;;;;1999.90;999.90;;;;;;;;;;4974249;28;20256;-66
2023/10/15 09:24:44;;;;;;;1999.90;999.90;;;;;;;;;;4956449;28;20415;-61
2023/10/15 09:27:10;;;;;;;1999.90;999.90;;;;;;;;;;4974069;28;20030;-62
2023/10/15 09:29:36;;;;;;;1999.90;999.90;;;;;;;;;;4974095;28;20030;-65
2023/10/15 09:32:04;;;;;;;1999.90;999.90;;;;;;;;;;4973992;28;20055;-66
2023/10/15 09:34:30;;;;;;;1999.90;999.90;;;;;;;;;;4974036;28;20117;-61
2023/10/15 09:36:58;;;;;;;1999.90;999.90;;;;;;;;;;4973905;28;20034;-66
2023/10/15 09:39:26;;;;;;;1999.90;999.90;;;;;;;;;;4974089;28;20022;-60
2023/10/15 09:41:53;;;;;;;1999.90;999.90;;;;;;;;;;4973873;28;20045;-60
2023/10/15 09:44:19;;;;;;;1999.90;999.90;;;;;;;;;;4973729;28;20045;-63
2023/10/15 09:46:46;;;;;;;1999.90;999.90;;;;;;;;;;4972889;28;20382;-63
2023/10/15 09:49:13;;;;;;;1999.90;999.90;;;;;;;;;;4965234;28;20106;-59
2023/10/15 09:51:40;;;;;;;1999.90;999.90;;;;;;;;;;4961520;28;20360;-59
2023/10/15 09:54:14;;;;;;;1999.90;999.90;;;;;;;;;;4964485;28;20098;-66
2023/10/15 09:56:41;;;;;;;1999.90;999.90;;;;;;;;;;4964671;28;20023;-60
2023/10/15 09:59:08;;;;;;;1999.90;999.90;;;;;;;;;;4962538;28;20023;-59
2023/10/15 10:01:36;;;;;;;1999.90;999.90;;;;;;;;;;4963294;28;20046;-61
2023/10/15 10:04:04;;;;;;;1999.90;999.90;;;;;;;;;;4964761;28;20037;-61
2023/10/15 10:06:39;;;;;;;1999.90;999.90;;;;;;;;;;4962487;28;20491;-60
2023/10/15 10:09:06;;;;;;;1999.90;999.90;;;;;;;;;;4962894;28;20047;-63
2023/10/15 10:11:34;;;;;;;1999.90;999.90;;;;;;;;;;4964828;28;20033;-61
2023/10/15 10:14:06;;;;;;;1999.90;999.90;;;;;;;;;;4959979;28;20031;-59
2023/10/15 10:16:32;;;;;;;;;;;;;;;;;;4958793;28;20557;-60
2023/10/15 10:18:58;;;;;;;1999.90;999.90;;;;;;;;;;4961576;28;19911;-60
2023/10/15 10:21:29;;;;;;;1999.90;999.90;;;;;;;;;;4962163;28;20416;-66
2023/10/15 10:23:58;;;;;;;1999.90;999.90;;;;;;;;;;4965604;28;20050;-57
2023/10/15 10:26:27;;;;;;;1999.90;999.90;;;;;;;;;;4962829;28;20047;-60
2023/10/15 10:28:56;;;;;;;1999.90;999.90;;;;;;;;;;4960940;28;20027;-59
2023/10/15 10:31:22;;;;;;;1999.90;999.90;;;;;;;;;;4963222;28;20386;-58
2023/10/15 10:33:49;;;;;;;1999.90;999.90;;;;;;;;;;4962286;28;20098;-60
2023/10/15 10:36:19;;;;;;;1999.90;999.90;;;;;;;;;;4962427;28;20504;-58
2023/10/15 10:39:13;;;;;;;1999.90;999.90;;;;;;;;;;4964294;28;20018;-65
2023/10/15 10:41:46;;;;;;;1999.90;999.90;;;;;;;;;;4963999;28;20046;-60
2023/10/15 10:44:35;;;;;;;1999.90;999.90;;;;;;;;;;4945978;28;20031;-65
2023/10/15 10:47:16;;;;;;;1999.90;999.90;;;;;;;;;;4950584;28;20042;-60
2023/10/15 10:49:48;;;;;;;1999.90;999.90;;;;;;;;;;4962529;28;20038;-65
2023/10/15 10:52:23;;;;;;;1999.90;999.90;;;;;;;;;;4961340;28;20031;-60
2023/10/15 10:54:49;;;;;;;1999.90;999.90;;;;;;;;;;4962245;28;20098;-60
2023/10/15 10:57:20;;;;;;;1999.90;999.90;;;;;;;;;;4963618;28;20482;-62
2023/10/15 10:59:46;;;;;;;1999.90;999.90;;;;;;;;;;4944568;28;20047;-58
2023/10/15 11:02:15;;;;;;;1999.90;999.90;;;;;;;;;;4970100;28;20101;-60
2023/10/15 11:04:42;;;;;;;1999.90;999.90;;;;;;;;;;4956129;28;20035;-61
2023/10/15 11:07:09;;;;;;;1999.90;999.90;;;;;;;;;;4952850;29;20538;-63
2023/10/15 11:09:38;;;;;;;1999.90;999.90;;;;;;;;;;4952583;29;20518;-60
2023/10/15 11:12:06;;;;;;;1999.90;999.90;;;;;;;;;;4952360;29;20035;-68
2023/10/15 11:14:33;;;;;;;1999.90;999.90;;;;;;;;;;4952781;29;20031;-63
2023/10/15 11:16:59;;;;;;;1999.90;999.90;;;;;;;;;;4952576;29;20463;-62
2023/10/15 11:19:30;;;;;;;1999.90;999.90;;;;;;;;;;4959669;28;20105;-62
2023/10/15 11:21:56;;;;;;;1999.90;999.90;;;;;;;;;;4971036;28;20034;-62
2023/10/15 11:24:23;;;;;;;1999.90;999.90;;;;;;;;;;4972468;28;20031;-59
2023/10/15 11:26:50;;;;;;;1999.90;999.90;;;;;;;;;;4969087;28;20037;-62
2023/10/15 11:29:20;;;;;;;1999.90;999.90;;;;;;;;;;4971822;28;20041;-59
2023/10/15 11:31:48;;;;;;;1999.90;999.90;;;;;;;;;;4972668;28;20106;-59
2023/10/15 11:34:22;;;;;;;1999.90;999.90;;;;;;;;;;4972289;28;20026;-60
2023/10/15 11:36:49;;;;;;;1999.90;999.90;;;;;;;;;;4955921;28;20034;-59
2023/10/15 11:39:19;;;;;;;1999.90;999.90;;;;;;;;;;4970893;28;20030;-66
2023/10/15 11:41:51;;;;;;;1999.90;999.90;;;;;;;;;;4961433;28;20027;-59
2023/10/15 11:44:25;;;;;;;1999.90;999.90;;;;;;;;;;4964475;28;20118;-59
2023/10/15 11:46:51;;;;;;;1999.90;999.90;;;;;;;;;;4952191;29;20055;-66
2023/10/15 11:49:22;;;;;;;1999.90;999.90;;;;;;;;;;4935283;29;20068;-61
2023/10/15 11:51:48;;;;;;;1999.90;999.90;;;;;;;;;;4952360;29;20516;-58
2023/10/15 11:54:15;;;;;;;1999.90;999.90;;;;;;;;;;4953610;29;20374;-62
2023/10/15 11:56:54;;;;;;;1999.90;999.90;;;;;;;;;;4956700;29;20038;-66
2023/10/15 11:59:21;;;;;;;1999.90;999.90;;;;;;;;;;4952309;29;20031;-64
2023/10/15 12:01:51;;;;;;;1999.90;999.90;;;;;;;;;;4953988;29;20039;-65
2023/10/15 12:04:17;;;;;;;1999.90;999.90;;;;;;;;;;4952494;29;20126;-65
2023/10/15 12:06:43;;;;;;;1999.90;999.90;;;;;;;;;;4952709;29;20027;-62
2023/10/15 12:09:12;;;;;;;1999.90;999.90;;;;;;;;;;4961632;28;20023;-61
2023/10/15 12:11:40;;;;;;;1999.90;999.90;;;;;;;;;;4960379;28;20336;-62
2023/10/15 12:14:06;;;;;;;1999.90;999.90;;;;;;;;;;4962818;28;20492;-63
2023/10/15 12:16:32;;;;;;;1999.90;999.90;;;;;;;;;;4947591;28;20383;-63
2023/10/15 12:18:58;;;;;;;1999.90;999.90;;;;;;;;;;4963862;28;20020;-61
2023/10/15 12:21:24;;;;;;;1999.90;999.90;;;;;;;;;;4960554;28;20384;-61
2023/10/15 12:23:50;;;;;;;1999.90;999.90;;;;;;;;;;4964470;28;20070;-66
2023/10/15 12:26:16;;;;;;;1999.90;999.90;;;;;;;;;;4965779;28;20413;-65
2023/10/15 12:28:47;;;;;;;1999.90;999.90;;;;;;;;;;4964743;28;20039;-62
2023/10/15 12:31:13;;;;;;;1999.90;999.90;;;;;;;;;;4975011;28;20039;-64
2023/10/15 12:33:39;;;;;;;1999.90;999.90;;;;;;;;;;4974794;28;20102;-63
2023/10/15 12:36:09;;;;;;;1999.90;999.90;;;;;;;;;;4971586;28;20110;-61
2023/10/15 12:38:39;;;;;;;1999.90;999.90;;;;;;;;;;4965539;28;20091;-62
2023/10/15 12:41:05;;;;;;;1999.90;999.90;;;;;;;;;;4965847;28;20035;-63
2023/10/15 12:43:32;;;;;;;1999.90;999.90;;;;;;;;;;4963622;28;20506;-66
2023/10/15 12:45:59;;;;;;;1999.90;999.90;;;;;;;;;;4965777;28;20073;-61
2023/10/15 12:48:27;;;;;;;1999.90;999.90;;;;;;;;;;4955368;28;20517;-65
2023/10/15 12:50:53;;;;;;;1999.90;999.90;;;;;;;;;;4963808;28;20022;-66
2023/10/15 12:53:20;;;;;;;1999.90;999.90;;;;;;;;;;4962728;28;20046;-68
2023/10/15 12:55:46;;;;;;;1999.90;999.90;;;;;;;;;;4967931;28;20465;-69
2023/10/15 12:58:12;;;;;;;1999.90;999.90;;;;;;;;;;4932597;28;20029;-67
2023/10/15 13:00:48;;;;;;;1999.90;999.90;;;;;;;;;;4962758;28;20054;-64
2023/10/15 13:03:16;;;;;;;1999.90;999.90;;;;;;;;;;4963582;28;20091;-62
2023/10/15 13:05:42;;;;;;;1999.90;999.90;;;;;;;;;;4950830;28;20019;-67
2023/10/15 13:08:08;;;;;;;1999.90;999.90;;;;;;;;;;4930998;28;20359;-65
2023/10/15 13:10:34;;;;;;;1999.90;999.90;;;;;;;;;;4963712;28;20035;-62
2023/10/15 13:13:01;;;;;;;1999.90;999.90;;;;;;;;;;4961129;28;20082;-61
2023/10/15 13:15:27;;;;;;;1999.90;999.90;;;;;;;;;;4962093;28;20083;-61
2023/10/15 13:17:57;;;;;;;1999.90;999.90;;;;;;;;;;4968809;28;20053;-61
2023/10/15 13:20:23;;;;;;;1999.90;999.90;;;;;;;;;;4963126;28;20045;-63
2023/10/15 13:22:50;;;;;;;1999.90;999.90;;;;;;;;;;4965701;28;20031;-62
2023/10/15 13:25:16;;;;;;;1999.90;999.90;;;;;;;;;;4964409;28;20027;-69
2023/10/15 13:27:45;;;;;;;1999.90;999.90;;;;;;;;;;4959563;28;20043;-67
2023/10/15 13:30:15;;;;;;;1999.90;999.90;;;;;;;;;;4957647;28;20074;-67
2023/10/15 13:32:48;;;;;;;1999.90;999.90;;;;;;;;;;4956091;29;20483;-69
2023/10/15 13:35:15;;;;;;;1999.90;999.90;;;;;;;;;;4955715;28;20023;-70
2023/10/15 13:37:46;;;;;;;1999.90;999.90;;;;;;;;;;4939110;28;20058;-68
2023/10/15 13:40:12;;;;;;;1999.90;999.90;;;;;;;;;;4962031;28;20035;-65
2023/10/15 13:42:39;;;;;;;1999.90;999.90;;;;;;;;;;4954377;29;20041;-67
2023/10/15 13:45:05;;;;;;;1999.90;999.90;;;;;;;;;;4967245;28;20035;-66
2023/10/15 13:47:32;;;;;;;1999.90;999.90;;;;;;;;;;4963442;28;20155;-68
2023/10/15 13:49:58;;;;;;;1999.90;999.90;;;;;;;;;;4972359;28;20042;-67
2023/10/15 13:52:24;;;;;;;1999.90;999.90;;;;;;;;;;4973617;28;20027;-67
2023/10/15 13:54:50;;;;;;;1999.90;999.90;;;;;;;;;;4973500;28;20031;-69
2023/10/15 13:57:16;;;;;;;1999.90;999.90;;;;;;;;;;4974599;28;20038;-65
2023/10/15 13:59:42;;;;;;;1999.90;999.90;;;;;;;;;;4974440;28;20406;-67
2023/10/15 14:02:12;;;;;;;1999.90;999.90;;;;;;;;;;4976724;28;20381;-71
2023/10/15 14:04:38;;;;;;;1999.90;999.90;;;;;;;;;;4973497;28;20026;-71
2023/10/15 14:07:04;;;;;;;1999.90;999.90;;;;;;;;;;4973830;28;20574;-67
2023/10/15 14:09:33;;;;;;;1999.90;999.90;;;;;;;;;;4973538;28;20553;-71
2023/10/15 14:12:01;;;;;;;1999.90;999.90;;;;;;;;;;4975119;28;20478;-68
2023/10/15 14:14:27;;;;;;;1999.90;999.90;;;;;;;;;;4973542;28;20035;-66
2023/10/15 14:16:53;;;;;;;1999.90;999.90;;;;;;;;;;4972916;28;20165;-67
2023/10/15 14:19:19;;;;;;;1999.90;999.90;;;;;;;;;;4973869;28;20026;-66
2023/10/15 14:21:46;;;;;;;1999.90;999.90;;;;;;;;;;4975396;28;20027;-70
2023/10/15 14:24:12;;;;;;;1999.90;999.90;;;;;;;;;;4956491;28;20095;-70
2023/10/15 14:26:39;;;;;;;1999.90;999.90;;;;;;;;;;4955395;28;20385;-65
2023/10/15 14:29:07;;;;;;;1999.90;999.90;;;;;;;;;;4977831;28;20081;-65
2023/10/15 14:31:33;;;;;;;1999.90;999.90;;;;;;;;;;4941724;29;20767;-68
2023/10/15 14:33:59;;;;;;;1999.90;999.90;;;;;;;;;;4955821;28;20034;-65
2023/10/15 14:36:27;;;;;;;1999.90;999.90;;;;;;;;;;4973600;28;20022;-67
2023/10/15 14:38:53;;;;;;;1999.90;999.90;;;;;;;;;;4971913;28;20196;-68
2023/10/15 14:41:19;;;;;;;1999.90;999.90;;;;;;;;;;4972647;28;20089;-75
2023/10/15 14:43:46;;;;;;;1999.90;999.90;;;;;;;;;;4973055;28;20035;-70
2023/10/15 14:46:12;;;;;;;1999.90;999.90;;;;;;;;;;4972393;28;20018;-72
2023/10/15 14:48:38;;;;;;;1999.90;999.90;;;;;;;;;;4972222;28;20471;-71
2023/10/15 14:51:04;;;;;;;1999.90;999.90;;;;;;;;;;4972757;28;20026;-67
2023/10/15 14:53:32;;;;;;;1999.90;999.90;;;;;;;;;;4951950;28;20031;-76
2023/10/15 14:55:58;;;;;;;1999.90;999.90;;;;;;;;;;4964383;28;20027;-70
2023/10/15 14:58:24;;;;;;;1999.90;999.90;;;;;;;;;;4970715;28;20043;-73
2023/10/15 15:00:50;;;;;;;1999.90;999.90;;;;;;;;;;4960179;28;20155;-70
2023/10/15 15:03:22;;;;;;;1999.90;999.90;;;;;;;;;;4960582;28;20112;-71
2023/10/15 15:05:48;;;;;;;1999.90;999.90;;;;;;;;;;4962721;28;20022;-71
2023/10/15 15:08:14;;;;;;;1999.90;999.90;;;;;;;;;;4962403;28;20085;-68
2023/10/15 15:10:41;;;;;;;1999.90;999.90;;;;;;;;;;4962651;28;20120;-72
2023/10/15 15:13:08;;;;;;;1999.90;999.90;;;;;;;;;;4961104;28;20042;-67
2023/10/15 15:15:34;;;;;;;1999.90;999.90;;;;;;;;;;4962052;28;20046;-73
2023/10/15 15:18:00;;;;;;;1999.90;999.90;;;;;;;;;;4961668;28;20026;-75
2023/10/15 15:20:26;;;;;;;1999.90;999.90;;;;;;;;;;4961131;28;20045;-70
2023/10/15 15:22:52;;;;;;;1999.90;999.90;;;;;;;;;;4961218;28;20035;-72
2023/10/15 15:25:20;;;;;;;1999.90;999.90;;;;;;;;;;4961515;28;20023;-72
2023/10/15 15:27:46;;;;;;;1999.90;999.90;;;;;;;;;;4945703;28;20054;-73
2023/10/15 15:30:13;;;;;;;1999.90;999.90;;;;;;;;;;4964121;28;20140;-74
2023/10/15 15:32:39;;;;;;;1999.90;999.90;;;;;;;;;;4940931;28;20065;-69
2023/10/15 15:35:05;;;;;;;1999.90;999.90;;;;;;;;;;4954007;28;20019;-74
2023/10/15 15:37:32;;;;;;;1999.90;999.90;;;;;;;;;;4954249;28;20131;-73
2023/10/15 15:40:04;;;;;;;1999.90;999.90;;;;;;;;;;4955649;28;20113;-66
2023/10/15 15:42:31;;;;;;;1999.90;999.90;;;;;;;;;;4953823;28;20046;-66
2023/10/15 15:44:57;;;;;;;1999.90;999.90;;;;;;;;;;4958929;28;20038;-69
2023/10/15 15:47:24;;;;;;;1999.90;999.90;;;;;;;;;;4963684;28;20057;-68
2023/10/15 15:49:50;;;;;;;1999.90;999.90;;;;;;;;;;4963269;28;20018;-67
2023/10/15 15:52:17;;;;;;;1999.90;999.90;;;;;;;;;;4962958;28;20051;-67
2023/10/15 15:54:43;;;;;;;1999.90;999.90;;;;;;;;;;4960950;28;20023;-69
2023/10/15 15:57:10;;;;;;;1999.90;999.90;;;;;;;;;;4962289;28;20022;-69
2023/10/15 15:59:36;;;;;;;1999.90;999.90;;;;;;;;;;4961737;28;20479;-69
2023/10/15 16:02:03;;;;;;;1999.90;999.90;;;;;;;;;;4957351;28;20431;-68
2023/10/15 16:04:29;;;;;;;1999.90;999.90;;;;;;;;;;4953872;28;20065;-70
2023/10/15 16:06:55;;;;;;;1999.90;999.90;;;;;;;;;;4952171;29;20064;-66
2023/10/15 16:09:21;;;;;;;1999.90;999.90;;;;;;;;;;4952050;29;20386;-67
2023/10/15 16:11:47;;;;;;;1999.90;999.90;;;;;;;;;;4951739;29;20086;-70
2023/10/15 16:14:14;;;;;;;1999.90;999.90;;;;;;;;;;4951751;29;20483;-70
2023/10/15 16:16:45;;;;;;;1999.90;999.90;;;;;;;;;;4954812;28;20464;-68
2023/10/15 16:19:11;;;;;;;1999.90;999.90;;;;;;;;;;4961801;28;20023;-71
2023/10/15 16:21:37;;;;;;;1999.90;999.90;;;;;;;;;;4959966;28;20054;-67
2023/10/15 16:24:03;;;;;;;1999.90;999.90;;;;;;;;;;4961505;28;20479;-69
2023/10/15 16:26:33;;;;;;;1999.90;999.90;;;;;;;;;;4961807;28;20471;-72
2023/10/15 16:29:00;;;;;;;1999.90;999.90;;;;;;;;;;4960499;28;20141;-69
2023/10/15 16:31:27;;;;;;;1999.90;999.90;;;;;;;;;;4961735;28;20030;-70
2023/10/15 16:33:54;;;;;;;1999.90;999.90;;;;;;;;;;4961786;28;20491;-72
2023/10/15 16:36:20;;;;;;;1999.90;999.90;;;;;;;;;;4959556;28;20114;-68
2023/10/15 16:38:46;;;;;;;1999.90;999.90;;;;;;;;;;4961467;28;20051;-71
2023/10/15 16:41:12;;;;;;;1999.90;999.90;;;;;;;;;;4960883;28;20027;-68
2023/10/15 16:43:38;;;;;;;1999.90;999.90;;;;;;;;;;4959668;28;20032;-67
2023/10/15 16:46:05;;;;;;;1999.90;999.90;;;;;;;;;;4961251;28;20030;-69
2023/10/15 16:48:32;;;;;;;1999.90;999.90;;;;;;;;;;4960774;28;20023;-69
2023/10/15 16:50:59;;;;;;;1999.90;999.90;;;;;;;;;;4959596;28;20078;-69
2023/10/15 16:53:25;;;;;;;1999.90;999.90;;;;;;;;;;4938226;28;20035;-69
2023/10/15 16:55:52;;;;;;;1999.90;999.90;;;;;;;;;;4963212;28;20051;-68
2023/10/15 16:58:18;;;;;;;1999.90;999.90;;;;;;;;;;4951092;29;20023;-73
2023/10/15 17:00:45;;;;;;;1999.90;999.90;;;;;;;;;;4952010;28;20532;-71
2023/10/15 17:03:11;;;;;;;1999.90;999.90;;;;;;;;;;4954771;29;20071;-69
2023/10/15 17:05:38;;;;;;;1999.90;999.90;;;;;;;;;;4954806;29;20030;-66
2023/10/15 17:08:04;;;;;;;1999.90;999.90;;;;;;;;;;4955510;29;20023;-65
2023/10/15 17:10:31;;;;;;;1999.90;999.90;;;;;;;;;;4970919;28;20039;-74
2023/10/15 17:12:57;;;;;;;1999.90;999.90;;;;;;;;;;4973914;28;20042;-72
2023/10/15 17:15:24;;;;;;;1999.90;999.90;;;;;;;;;;4974203;28;20599;-66
2023/10/15 17:17:50;;;;;;;1999.90;999.90;;;;;;;;;;4973910;28;20027;-69
2023/10/15 17:20:21;;;;;;;1999.90;999.90;;;;;;;;;;4973767;28;20859;-70
2023/10/15 17:22:56;;;;;;;1999.90;999.90;;;;;;;;;;4974123;28;20027;-72
2023/10/15 17:25:22;;;;;;;1999.90;999.90;;;;;;;;;;4971283;28;20024;-68
2023/10/15 17:27:48;;;;;;;1999.90;999.90;;;;;;;;;;4954113;29;20515;-69
2023/10/15 17:30:16;;;;;;;1999.90;999.90;;;;;;;;;;4954093;29;20454;-65
2023/10/15 17:32:42;;;;;;;1999.90;999.90;;;;;;;;;;4954613;29;20055;-67
2023/10/15 17:35:09;;;;;;;1999.90;999.90;;;;;;;;;;4973841;28;20035;-69
2023/10/15 17:37:35;;;;;;;1999.90;999.90;;;;;;;;;;4973985;28;20031;-70
2023/10/15 17:40:01;;;;;;;1999.90;999.90;;;;;;;;;;4973775;28;20026;-69
2023/10/15 17:42:27;;;;;;;1999.90;999.90;;;;;;;;;;4973874;28;20031;-70
2023/10/15 17:44:53;;;;;;;1999.90;999.90;;;;;;;;;;4974410;28;20062;-70
2023/10/15 17:47:19;;;;;;;1999.90;999.90;;;;;;;;;;4956926;28;20023;-69
2023/10/15 17:49:45;;;;;;;1999.90;999.90;;;;;;;;;;4973688;28;20027;-71
2023/10/15 17:52:11;;;;;;;1999.90;999.90;;;;;;;;;;4973591;28;20109;-68
2023/10/15 17:54:38;;;;;;;1999.90;999.90;;;;;;;;;;4973366;28;20027;-72
2023/10/15 17:57:04;;;;;;;1999.90;999.90;;;;;;;;;;4956576;28;20023;-67
2023/10/15 17:59:30;;;;;;;1999.90;999.90;;;;;;;;;;4954117;29;20035;-72
2023/10/15 18:01:56;;;;;;;1999.90;999.90;;;;;;;;;;4936936;29;20031;-71
2023/10/15 18:04:22;;;;;;;1999.90;999.90;;;;;;;;;;4954580;29;20031;-69
2023/10/15 18:06:48;;;;;;;1999.90;999.90;;;;;;;;;;4954414;29;20437;-67
2023/10/15 18:09:17;;;;;;;1999.90;999.90;;;;;;;;;;4954303;29;20482;-69
2023/10/15 18:11:44;;;;;;;1999.90;999.90;;;;;;;;;;4952779;28;20110;-68
2023/10/15 18:14:10;;;;;;;1999.90;999.90;;;;;;;;;;4953549;29;20058;-68
2023/10/15 18:16:36;;;;;;;1999.90;999.90;;;;;;;;;;4954074;29;20027;-67
2023/10/15 18:19:02;;;;;;;1999.90;999.90;;;;;;;;;;4961098;28;20034;-66
2023/10/15 18:21:28;;;;;;;1999.90;999.90;;;;;;;;;;4966900;28;20786;-69
2023/10/15 18:23:55;;;;;;;1999.90;999.90;;;;;;;;;;4971432;28;20486;-69
2023/10/15 18:26:21;;;;;;;1999.90;999.90;;;;;;;;;;4972579;28;20026;-70
2023/10/15 18:28:47;;;;;;;1999.90;999.90;;;;;;;;;;4972298;28;20031;-71
2023/10/15 18:31:13;;;;;;;1999.90;999.90;;;;;;;;;;4972535;28;20100;-69
2023/10/15 18:33:39;;;;;;;1999.90;999.90;;;;;;;;;;4972691;28;20105;-71
2023/10/15 18:36:05;;;;;;;1999.90;999.90;;;;;;;;;;4972209;28;20038;-70
2023/10/15 18:38:32;;;;;;;1999.90;999.90;;;;;;;;;;4973019;28;20133;-71
2023/10/15 18:40:58;;;;;;;1999.90;999.90;;;;;;;;;;4972869;28;20038;-68